Time;durP1;ratioP1;P1;durP2;ratioP2;P2;SDS_P1;SDS_P2;PMS_P1;PMS_P2;Temp;Humidity;BMP_temperature;BMP_pressure;BME280_temperature;BME280_humidity;BME280_pressure;Samples;Min_cycle;Max_cycle;Signal;HPM_P1;HPM_P2
2021/12/16 00:04:51;;;;;;;96.57;53.25;;;77.50;2227.20;;;;;;6188506;23;20008;-90
2021/12/16 00:07:33;;;;;;;108.43;55.28;;;77.60;2227.20;;;;;;6186814;23;20069;-90
2021/12/16 00:30:09;;;;;;;106.18;55.72;;;77.60;2227.20;;;;;;6188148;23;20015;-89
2021/12/16 00:35:20;;;;;;;95.13;49.08;;;77.70;2227.20;;;;;;6188458;23;20285;-89
2021/12/16 00:37:54;;;;;;;94.22;51.55;;;77.70;2227.20;;;;;;6161700;23;20008;-89
2021/12/16 00:40:41;;;;;;;112.18;56.83;;;102.40;2227.20;;;;;;6161590;23;20088;-89
2021/12/16 00:43:32;;;;;;;;;;;;;;;;;;;;;
2021/12/16 00:46:33;;;;;;;116.03;58.15;;;77.70;2227.20;;;;;;6188089;23;20069;-89
2021/12/16 00:49:19;;;;;;;93.82;50.25;;;77.70;2227.20;;;;;;6161727;23;20008;-90
2021/12/16 00:55:09;;;;;;;95.95;51.33;;;77.50;2227.20;;;;;;6187831;23;20039;-90
2021/12/16 00:57:38;;;;;;;98.60;50.05;;;77.50;2227.20;;;;;;6158088;23;20009;-88
2021/12/16 01:00:16;;;;;;;94.35;48.75;;;77.20;2227.20;;;;;;6161939;23;20060;-88
2021/12/16 01:03:12;;;;;;;95.30;49.47;;;77.30;2227.20;;;;;;6162014;23;20441;-89
2021/12/16 01:34:03;;;;;;;98.10;49.35;;;77.50;2227.20;;;;;;6187344;23;20008;-90
2021/12/16 01:36:52;;;;;;;89.93;49.40;;;77.40;2227.20;;;;;;6161525;23;20035;-88
2021/12/16 01:40:01;;;;;;;95.53;49.85;;;77.50;2227.20;;;;;;6160801;23;20005;-88
2021/12/16 01:45:31;;;;;;;94.32;54.92;;;77.60;2227.20;;;;;;6187881;23;20025;-88
2021/12/16 01:47:56;;;;;;;93.50;50.63;;;77.50;2227.20;;;;;;6182817;23;19997;-89
2021/12/16 01:50:30;;;;;;;94.18;49.47;;;77.40;2227.20;;;;;;6161458;23;20005;-89
2021/12/16 01:56:15;;;;;;;84.07;48.72;;;77.40;2227.20;;;;;;6088972;23;20006;-89
2021/12/16 01:58:41;;;;;;;96.35;50.38;;;77.40;2227.20;;;;;;6180584;23;20327;-89
2021/12/16 02:01:18;;;;;;;98.05;53.42;;;77.50;2227.20;;;;;;6190954;23;19997;-89
2021/12/16 02:03:49;;;;;;;93.80;51.67;;;77.50;2227.20;;;;;;6191143;23;20004;-89
2021/12/16 02:08:46;;;;;;;98.28;50.60;;;77.60;2227.20;;;;;;6227420;23;19996;-89
2021/12/16 02:27:23;;;;;;;88.40;49.53;;;77.60;2227.20;;;;;;6227594;23;19993;-89
2021/12/16 02:37:36;;;;;;;94.10;49.00;;;77.30;2227.20;;;;;;6217257;23;20032;-90
2021/12/16 02:40:07;;;;;;;89.45;46.35;;;77.50;2227.20;;;;;;6217416;23;20355;-89
2021/12/16 02:42:52;;;;;;;86.07;47.97;;;77.50;2227.20;;;;;;6190819;23;20005;-89
2021/12/16 02:50:48;;;;;;;80.82;46.45;;;77.60;2227.20;;;;;;6216931;23;20004;-89
2021/12/16 02:53:14;;;;;;;91.43;49.33;;;77.30;2227.20;;;;;;6190773;23;20310;-89
2021/12/16 02:55:40;;;;;;;82.80;44.83;;;77.10;2227.20;;;;;;6190644;23;20012;-89
2021/12/16 02:58:06;;;;;;;90.68;46.10;;;77.30;2227.20;;;;;;6190596;23;20023;-88
2021/12/16 03:00:37;;;;;;;93.32;44.65;;;77.30;2227.20;;;;;;6190822;23;20040;-89
2021/12/16 03:03:03;;;;;;;85.28;47.10;;;77.40;2227.20;;;;;;6191237;23;20001;-89
2021/12/16 03:05:29;;;;;;;89.65;47.90;;;77.20;2227.20;;;;;;6190747;23;20001;-89
2021/12/16 03:07:56;;;;;;;85.10;47.83;;;77.00;2227.20;;;;;;6190754;23;20001;-90
2021/12/16 03:18:25;;;;;;;91.97;49.35;;;77.50;2227.20;;;;;;6227135;23;19997;-89
2021/12/16 03:21:01;;;;;;;85.18;48.05;;;77.30;2227.20;;;;;;6190787;23;20012;-89
2021/12/16 03:39:02;;;;;;;80.60;44.78;;;102.80;2227.20;;;;;;6226814;23;20000;-88
2021/12/16 03:41:29;;;;;;;87.90;46.72;;;77.70;2227.20;;;;;;6190470;23;19997;-87
2021/12/16 03:43:58;;;;;;;89.10;48.33;;;77.50;2227.20;;;;;;6190569;23;20407;-89
2021/12/16 03:46:29;;;;;;;85.93;45.80;;;77.60;2227.20;;;;;;6190542;23;20096;-89
2021/12/16 03:49:04;;;;;;;86.35;46.92;;;77.70;2227.20;;;;;;6190634;23;20000;-89
2021/12/16 03:51:47;;;;;;;95.40;50.47;;;102.40;2227.20;;;;;;6190421;23;20003;-89
2021/12/16 03:54:15;;;;;;;;;;;77.50;2227.20;;;;;;6191194;23;19996;-90
2021/12/16 03:56:45;;;;;;;91.63;47.00;;;77.40;2227.20;;;;;;6190357;23;19950;-89
2021/12/16 03:59:15;;;;;;;93.40;48.22;;;77.50;2227.20;;;;;;6190305;23;20012;-88
2021/12/16 04:01:41;;;;;;;89.43;47.42;;;77.50;2227.20;;;;;;6190587;23;19993;-88
2021/12/16 04:04:07;;;;;;;86.57;49.63;;;77.50;2227.20;;;;;;6191819;23;20007;-89
2021/12/16 04:06:36;;;;;;;95.13;52.33;;;77.50;2227.20;;;;;;6191957;23;20311;-89
2021/12/16 04:09:05;;;;;;;93.20;48.97;;;77.60;2227.20;;;;;;6192153;23;19996;-90
2021/12/16 04:11:39;;;;;;;95.32;48.05;;;77.50;2227.20;;;;;;6192239;23;19996;-89
2021/12/16 04:14:08;;;;;;;89.82;53.38;;;77.50;2227.20;;;;;;6192371;23;19997;-90
2021/12/16 04:16:39;;;;;;;89.38;49.42;;;77.50;2227.20;;;;;;6203725;23;19992;-89
2021/12/16 04:19:09;;;;;;;85.57;50.22;;;77.40;2227.20;;;;;;6219516;22;20020;-89
2021/12/16 04:21:38;;;;;;;92.43;48.88;;;77.30;2227.20;;;;;;6208666;23;19997;-89
2021/12/16 04:24:04;;;;;;;88.65;50.25;;;77.40;2227.20;;;;;;6192851;23;20083;-90
2021/12/16 04:26:31;;;;;;;91.13;51.90;;;77.40;2227.20;;;;;;6193118;23;20007;-89
2021/12/16 04:28:57;;;;;;;98.45;55.35;;;77.10;2227.20;;;;;;6192867;23;20015;-90
2021/12/16 04:31:24;;;;;;;95.65;52.65;;;102.60;2227.20;;;;;;6218383;23;20347;-89
2021/12/16 04:33:50;;;;;;;83.22;47.78;;;77.30;2227.20;;;;;;6191960;23;20004;-89
2021/12/16 04:36:16;;;;;;;96.18;50.42;;;77.40;2227.20;;;;;;6191818;23;19996;-90
2021/12/16 04:38:44;;;;;;;102.88;55.55;;;77.50;2227.20;;;;;;6191871;23;19996;-90
2021/12/16 04:41:12;;;;;;;101.55;55.80;;;77.70;2227.20;;;;;;6191931;23;19996;-90
2021/12/16 04:43:49;;;;;;;103.30;59.63;;;77.50;2227.20;;;;;;6191892;23;20014;-87
2021/12/16 04:46:22;;;;;;;104.13;57.58;;;77.60;2227.20;;;;;;6191874;23;20001;-91
2021/12/16 04:48:51;;;;;;;116.55;61.88;;;77.70;2227.20;;;;;;6192271;23;20004;-90
2021/12/16 04:51:18;;;;;;;115.18;62.72;;;102.40;2227.20;;;;;;6192031;23;20036;-90
2021/12/16 04:53:44;;;;;;;231.05;133.60;;;77.60;2227.20;;;;;;6192180;23;20357;-91
2021/12/16 04:56:12;;;;;;;130.90;77.28;;;77.60;2227.20;;;;;;6191570;23;20088;-89
2021/12/16 04:58:41;;;;;;;138.20;78.07;;;77.40;2227.20;;;;;;6191737;23;20004;-89
2021/12/16 05:01:07;;;;;;;126.00;76.00;;;77.30;2227.20;;;;;;6191775;23;20487;-91
2021/12/16 05:03:34;;;;;;;111.32;61.92;;;77.40;2227.20;;;;;;6191611;23;20001;-90
2021/12/16 05:06:00;;;;;;;92.55;55.47;;;102.70;2227.20;;;;;;6191768;23;20415;-90
2021/12/16 05:08:27;;;;;;;106.88;60.83;;;77.40;2227.20;;;;;;6191826;23;20019;-90
2021/12/16 05:10:56;;;;;;;105.82;57.42;;;76.80;2227.20;;;;;;6191657;23;20046;-91
2021/12/16 05:13:25;;;;;;;100.40;59.13;;;76.80;2227.20;;;;;;6191391;23;19996;-90
2021/12/16 05:15:53;;;;;;;94.15;52.97;;;77.50;2227.20;;;;;;6191588;23;20007;-90
2021/12/16 05:18:24;;;;;;;98.93;57.05;;;77.50;2227.20;;;;;;6191461;23;19997;-90
2021/12/16 05:20:52;;;;;;;93.25;55.95;;;77.60;2227.20;;;;;;6191712;23;20059;-89
2021/12/16 05:28:42;;;;;;;95.30;54.35;;;102.40;2227.20;;;;;;6228024;23;20080;-89
2021/12/16 05:31:09;;;;;;;93.55;52.00;;;102.40;2227.20;;;;;;6190708;23;20079;-89
2021/12/16 05:33:35;;;;;;;88.35;52.92;;;77.70;2227.20;;;;;;6191511;23;20001;-90
2021/12/16 05:36:01;;;;;;;88.85;52.38;;;77.30;2227.20;;;;;;6191466;23;19996;-90
2021/12/16 05:38:28;;;;;;;98.75;55.40;;;77.50;2227.20;;;;;;6191106;23;20056;-90
2021/12/16 05:40:56;;;;;;;95.68;54.38;;;77.50;2227.20;;;;;;6191267;23;19997;-90
2021/12/16 05:43:24;;;;;;;101.55;58.67;;;77.50;2227.20;;;;;;6191182;23;20007;-90
2021/12/16 05:45:53;;;;;;;91.10;53.10;;;77.60;2227.20;;;;;;6191033;23;20079;-90
2021/12/16 05:48:22;;;;;;;98.97;53.60;;;77.70;2227.20;;;;;;6191347;23;20323;-90
2021/12/16 05:50:53;;;;;;;92.13;51.63;;;102.40;2227.20;;;;;;6191375;23;20091;-89
2021/12/16 05:53:19;;;;;;;94.65;52.38;;;102.40;2227.20;;;;;;6191158;23;19997;-89
2021/12/16 05:55:45;;;;;;;107.47;58.67;;;102.40;2227.20;;;;;;6172436;23;20017;-89
2021/12/16 05:58:17;;;;;;;105.65;56.75;;;77.70;2227.20;;;;;;6161433;23;20403;-89
2021/12/16 06:00:47;;;;;;;98.60;57.03;;;77.40;2227.20;;;;;;6161715;23;20087;-90
2021/12/16 06:03:13;;;;;;;103.60;52.80;;;77.60;2227.20;;;;;;6161419;23;20301;-90
2021/12/16 06:05:39;;;;;;;94.93;53.00;;;77.50;2227.20;;;;;;6161044;23;20055;-90
2021/12/16 06:08:06;;;;;;;106.32;65.40;;;77.60;2227.20;;;;;;6161517;23;20001;-90
2021/12/16 06:13:16;;;;;;;115.43;65.22;;;77.50;2227.20;;;;;;6187308;23;20430;-90
2021/12/16 06:16:02;;;;;;;119.35;65.15;;;77.50;2227.20;;;;;;6161236;23;19993;-90
2021/12/16 06:29:28;;;;;;;116.10;65.07;;;77.00;2227.20;;;;;;6197481;23;20036;-90
2021/12/16 06:31:54;;;;;;;120.60;73.70;;;77.10;2227.20;;;;;;6161191;23;20027;-90
2021/12/16 06:34:20;;;;;;;113.78;65.95;;;77.10;2227.20;;;;;;6160941;23;20000;-90
2021/12/16 06:36:46;;;;;;;111.70;64.97;;;77.20;2227.20;;;;;;6161300;23;20008;-90
2021/12/16 06:39:13;;;;;;;98.63;54.85;;;77.40;2227.20;;;;;;6160944;23;20005;-89
2021/12/16 06:41:39;;;;;;;95.78;53.83;;;77.40;2227.20;;;;;;6161049;23;19993;-90
2021/12/16 06:44:15;;;;;;;93.25;53.45;;;77.40;2227.20;;;;;;6161008;23;20000;-90
2021/12/16 06:46:43;;;;;;;91.15;52.40;;;77.50;2227.20;;;;;;6161089;23;20303;-90
2021/12/16 06:49:12;;;;;;;98.38;59.22;;;77.50;2227.20;;;;;;6160947;23;20005;-91
2021/12/16 06:52:00;;;;;;;110.80;63.10;;;77.50;2227.20;;;;;;6161228;23;20036;-89
2021/12/16 06:54:36;;;;;;;110.43;65.53;;;77.60;2227.20;;;;;;6160945;23;20004;-91
2021/12/16 06:59:54;;;;;;;112.47;62.80;;;77.60;2227.20;;;;;;6197401;23;20043;-92
2021/12/16 07:05:08;;;;;;;118.15;69.43;;;77.60;2227.20;;;;;;6187010;23;20047;-90
2021/12/16 07:07:34;;;;;;;122.28;67.80;;;77.40;2227.20;;;;;;6161214;23;20001;-90
2021/12/16 07:10:00;;;;;;;105.32;61.80;;;77.40;2227.20;;;;;;6160998;23;20315;-90
2021/12/16 07:12:35;;;;;;;103.15;59.45;;;77.20;2227.20;;;;;;6160780;23;20001;-90
2021/12/16 07:15:11;;;;;;;106.25;58.83;;;77.40;2227.20;;;;;;6161261;23;20028;-90
2021/12/16 07:17:39;;;;;;;110.18;64.13;;;77.30;2227.20;;;;;;6160984;23;20404;-90
2021/12/16 07:20:07;;;;;;;104.32;59.95;;;77.20;1868.80;;;;;;6160630;23;20016;-90
2021/12/16 07:22:34;;;;;;;120.50;66.13;;;77.40;2227.20;;;;;;6187087;23;20281;-90
2021/12/16 07:25:02;;;;;;;113.30;64.53;;;77.40;2227.20;;;;;;6160882;23;20032;-90
2021/12/16 07:27:29;;;;;;;109.32;63.20;;;77.40;2227.20;;;;;;6160747;23;20001;-91
2021/12/16 07:29:55;;;;;;;109.15;62.42;;;77.50;2227.20;;;;;;6161296;23;20005;-90
2021/12/16 07:32:21;;;;;;;107.13;62.38;;;77.60;2227.20;;;;;;6186894;23;20411;-90
2021/12/16 07:34:47;;;;;;;116.40;65.60;;;77.50;2227.20;;;;;;6160539;23;19997;-90
2021/12/16 07:37:13;;;;;;;110.82;63.67;;;77.50;2227.20;;;;;;6160808;23;20008;-91
2021/12/16 07:39:41;;;;;;;117.22;71.25;;;77.60;2227.20;;;;;;6162566;23;20012;-90
2021/12/16 07:42:11;;;;;;;152.77;89.80;;;77.70;2227.20;;;;;;6162564;23;20001;-89
2021/12/16 07:44:37;;;;;;;122.95;70.18;;;77.50;2227.20;;;;;;6188847;23;19997;-90
2021/12/16 07:47:08;;;;;;;126.00;73.90;;;77.40;2227.20;;;;;;6162426;23;20080;-90
2021/12/16 07:49:39;;;;;;;116.28;70.53;;;77.50;2227.20;;;;;;6162746;23;20004;-90
2021/12/16 07:52:09;;;;;;;128.02;74.07;;;77.60;2227.20;;;;;;6170873;23;20017;-90
2021/12/16 07:54:35;;;;;;;132.18;80.53;;;102.40;2227.20;;;;;;6189277;23;20013;-87
2021/12/16 07:57:01;;;;;;;128.85;78.03;;;77.70;2227.20;;;;;;6177710;23;20007;-90
2021/12/16 07:59:29;;;;;;;134.40;75.45;;;102.40;2227.20;;;;;;6163797;23;20083;-89
2021/12/16 08:01:57;;;;;;;144.88;85.53;;;102.40;2227.20;;;;;;6163756;23;19997;-90
2021/12/16 08:04:29;;;;;;;160.35;98.65;;;77.70;2227.20;;;;;;6163447;23;19993;-89
2021/12/16 08:06:59;;;;;;;184.77;115.07;;;102.40;2227.20;;;;;;6162403;23;20052;-90
2021/12/16 08:09:25;;;;;;;182.15;110.47;;;102.40;2227.20;;;;;;6162319;23;20039;-90
2021/12/16 08:11:52;;;;;;;181.07;113.22;;;102.50;2227.20;;;;;;6162386;23;19997;-90
2021/12/16 08:14:19;;;;;;;207.88;127.55;;;102.40;2227.20;;;;;;6162414;23;20032;-89
2021/12/16 08:16:45;;;;;;;195.68;114.80;;;102.40;2227.20;;;;;;6162343;23;20539;-89
2021/12/16 08:19:12;;;;;;;190.65;114.20;;;77.70;2227.20;;;;;;6162254;23;20001;-91
2021/12/16 08:21:39;;;;;;;178.63;107.43;;;102.40;2227.20;;;;;;6162273;23;20032;-90
2021/12/16 08:24:08;;;;;;;180.63;113.32;;;102.50;2227.20;;;;;;6162103;23;20001;-90
2021/12/16 08:27:03;;;;;;;172.57;102.90;;;102.50;2227.20;;;;;;6162490;23;20079;-92
2021/12/16 08:29:35;;;;;;;125.88;75.03;;;102.40;2227.20;;;;;;6131658;23;20075;-91
2021/12/16 08:32:02;;;;;;;125.57;71.33;;;102.40;2227.20;;;;;;6162439;23;20001;-92
2021/12/16 08:34:30;;;;;;;137.75;78.80;;;77.70;2227.20;;;;;;6161936;23;20001;-91
2021/12/16 08:37:07;;;;;;;135.77;78.68;;;77.70;2227.20;;;;;;6161980;23;20075;-89
2021/12/16 08:39:36;;;;;;;113.78;69.95;;;102.40;2227.20;;;;;;6162511;23;20092;-90
2021/12/16 08:42:09;;;;;;;110.93;67.68;;;77.60;2227.20;;;;;;6161691;23;19997;-92
2021/12/16 08:44:35;;;;;;;;;;;77.40;2099.20;;;;;;6162657;23;19993;-89
2021/12/16 08:47:05;;;;;;;122.07;67.40;;;77.60;2227.20;;;;;;6186469;23;19942;-78
2021/12/16 08:49:31;;;;;;;116.03;68.65;;;77.60;2227.20;;;;;;6187367;23;19993;-81
2021/12/16 08:52:04;;;;;;;114.30;64.43;;;102.40;2227.20;;;;;;6161036;23;20088;-81
2021/12/16 08:54:31;;;;;;;115.13;66.50;;;102.40;2227.20;;;;;;6161160;23;20000;-88
2021/12/16 08:56:57;;;;;;;108.47;65.20;;;102.50;2227.20;;;;;;6161801;23;20435;-88
2021/12/16 08:59:24;;;;;;;112.22;61.80;;;102.50;2227.20;;;;;;6161541;23;20447;-86
2021/12/16 09:01:53;;;;;;;109.65;61.33;;;77.60;2227.20;;;;;;6161813;23;20067;-87
2021/12/16 09:04:22;;;;;;;119.47;71.15;;;77.60;2227.20;;;;;;6161330;23;20088;-88
2021/12/16 09:06:58;;;;;;;118.07;65.00;;;77.70;2022.40;;;;;;6161792;23;20288;-89
2021/12/16 09:09:24;;;;;;;131.98;76.30;;;102.40;2227.20;;;;;;6161558;23;20012;-88
2021/12/16 09:14:45;;;;;;;118.82;66.75;;;77.70;2227.20;;;;;;6167961;23;19997;-87
2021/12/16 09:17:15;;;;;;;117.10;69.70;;;102.40;2227.20;;;;;;6161088;23;20008;-86
2021/12/16 09:19:45;;;;;;;116.50;69.35;;;77.70;2227.20;;;;;;6160944;23;20013;-88
2021/12/16 09:22:23;;;;;;;127.57;64.40;;;77.70;2227.20;;;;;;6161651;23;20089;-91
2021/12/16 09:24:50;;;;;;;118.45;64.38;;;77.70;1868.80;;;;;;6161815;23;20411;-90
2021/12/16 09:27:17;;;;;;;111.65;67.85;;;77.70;2124.80;;;;;;6161467;23;20360;-91
2021/12/16 09:29:44;;;;;;;140.07;79.00;;;102.40;2227.20;;;;;;6161844;23;20005;-90
2021/12/16 09:32:10;;;;;;;119.70;75.18;;;102.70;2227.20;;;;;;6161574;23;20005;-91
2021/12/16 09:34:38;;;;;;;130.30;75.30;;;77.60;2227.20;;;;;;6161650;23;19997;-90
2021/12/16 09:37:05;;;;;;;123.93;70.55;;;77.70;2227.20;;;;;;6161746;23;19993;-89
2021/12/16 09:39:32;;;;;;;137.35;79.28;;;102.40;2227.20;;;;;;6161249;23;20013;-87
2021/12/16 09:42:10;;;;;;;;;;;;;;;;;;;;;
2021/12/16 09:44:38;;;;;;;168.88;94.97;;;77.70;2227.20;;;;;;6187363;23;20648;-90
2021/12/16 09:47:11;;;;;;;153.30;88.80;;;77.70;2227.20;;;;;;6160978;23;20008;-91
2021/12/16 09:49:48;;;;;;;143.30;87.25;;;102.40;2227.20;;;;;;6161187;23;20001;-91
2021/12/16 09:52:14;;;;;;;165.57;100.50;;;102.50;2227.20;;;;;;6160909;23;20407;-84
2021/12/16 09:54:46;;;;;;;155.30;91.68;;;102.50;2227.20;;;;;;6160824;23;20016;-89
2021/12/16 09:57:14;;;;;;;136.20;80.07;;;102.40;1920.00;;;;;;6161454;23;20001;-92
2021/12/16 09:59:49;;;;;;;141.00;81.40;;;102.50;1945.60;;;;;;6160846;23;20028;-90
2021/12/16 10:02:18;;;;;;;125.57;74.78;;;102.50;2227.20;;;;;;6161368;23;20025;-80
2021/12/16 10:04:45;;;;;;;117.38;72.05;;;102.50;2227.20;;;;;;6160392;23;20059;-83
2021/12/16 10:07:15;;;;;;;116.30;70.25;;;102.60;2227.20;;;;;;6161342;23;20339;-90
2021/12/16 10:09:43;;;;;;;102.55;61.38;;;102.50;2227.20;;;;;;6161181;23;20004;-92
2021/12/16 10:12:15;;;;;;;100.97;63.03;;;102.50;1843.20;;;;;;6161309;23;20045;-90
2021/12/16 10:17:26;;;;;;;100.68;60.40;;;102.60;2227.20;;;;;;6197428;23;20083;-89
2021/12/16 10:19:58;;;;;;;110.90;66.65;;;102.60;2227.20;;;;;;6161005;23;20001;-89
2021/12/16 10:22:33;;;;;;;113.20;68.00;;;102.50;2227.20;;;;;;6186722;23;19997;-88
2021/12/16 10:25:33;;;;;;;116.85;66.93;;;102.50;2227.20;;;;;;6161112;23;20284;-87
2021/12/16 10:28:09;;;;;;;116.03;64.63;;;102.40;2227.20;;;;;;6160766;23;19997;-87
2021/12/16 10:30:52;;;;;;;111.78;66.35;;;102.50;2227.20;;;;;;6187177;23;20065;-88
2021/12/16 10:33:27;;;;;;;111.97;63.92;;;102.40;2227.20;;;;;;6161129;23;19994;-87
2021/12/16 10:36:12;;;;;;;181.05;95.50;;;102.60;2227.20;;;;;;6160542;23;20047;-88
2021/12/16 10:39:10;;;;;;;149.00;80.60;;;102.70;2227.20;;;;;;6160805;23;20055;-91
2021/12/16 10:41:53;;;;;;;150.05;89.70;;;102.70;2227.20;;;;;;6147568;23;20008;-87
2021/12/16 10:44:24;;;;;;;136.85;78.80;;;102.80;2227.20;;;;;;6161003;23;20052;-89
2021/12/16 10:47:06;;;;;;;131.82;78.50;;;102.80;2227.20;;;;;;6186765;23;19993;-87
2021/12/16 10:49:36;;;;;;;133.00;83.45;;;102.70;2227.20;;;;;;6160362;23;20001;-86
2021/12/16 10:52:27;;;;;;;142.10;86.07;;;102.80;2227.20;;;;;;6160455;23;19997;-89
2021/12/16 10:54:54;;;;;;;100.57;58.17;;;102.60;2227.20;;;;;;6160290;23;20012;-85
2021/12/16 10:57:25;;;;;;;99.07;59.92;;;102.60;2227.20;;;;;;6160485;23;20001;-89
2021/12/16 11:00:13;;;;;;;101.00;58.63;;;102.80;2227.20;;;;;;6160763;23;20005;-89
2021/12/16 11:02:40;;;;;;;118.90;68.60;;;102.70;2227.20;;;;;;6160929;23;19994;-88
2021/12/16 11:05:15;;;;;;;122.35;72.13;;;102.60;2227.20;;;;;;6160438;23;19997;-89
2021/12/16 11:07:43;;;;;;;126.25;76.82;;;102.70;2227.20;;;;;;6160562;23;20024;-86
2021/12/16 11:10:18;;;;;;;114.88;70.32;;;102.70;2227.20;;;;;;6160053;23;20135;-88
2021/12/16 11:13:02;;;;;;;122.97;76.97;;;102.80;2227.20;;;;;;6161860;23;19993;-87
2021/12/16 11:15:35;;;;;;;150.95;86.57;;;102.90;2227.20;;;;;;6188608;23;20007;-86
2021/12/16 11:18:02;;;;;;;;;;;102.90;2227.20;;;;;;6162649;23;20032;-87
2021/12/16 11:20:43;;;;;;;126.53;76.40;;;102.70;2227.20;;;;;;6161465;23;20330;-87
2021/12/16 11:23:21;;;;;;;128.30;81.40;;;102.70;2227.20;;;;;;6160846;23;20001;-85
2021/12/16 11:25:54;;;;;;;142.43;89.53;;;102.90;2227.20;;;;;;6160870;23;20207;-86
2021/12/16 11:28:23;;;;;;;165.60;100.50;;;103.00;2227.20;;;;;;6161571;23;19997;-85
2021/12/16 11:31:01;;;;;;;191.02;116.10;;;103.00;2227.20;;;;;;6161413;23;20008;-83
2021/12/16 11:33:33;;;;;;;182.73;111.32;;;103.00;2227.20;;;;;;6162017;23;20411;-86
2021/12/16 11:36:01;;;;;;;170.55;108.30;;;103.10;2227.20;;;;;;6162189;23;19997;-84
2021/12/16 11:38:48;;;;;;;179.07;108.88;;;103.10;2227.20;;;;;;6162035;23;19997;-85
2021/12/16 11:41:35;;;;;;;166.20;105.93;;;103.10;2227.20;;;;;;6161773;23;20434;-85
2021/12/16 11:44:09;;;;;;;164.23;100.57;;;103.10;2227.20;;;;;;6161809;23;19997;-84
2021/12/16 11:46:44;;;;;;;120.70;74.20;;;103.10;2227.20;;;;;;6161517;23;19997;-84
2021/12/16 11:49:15;;;;;;;105.97;66.93;;;103.10;2227.20;;;;;;6161596;23;20008;-87
2021/12/16 11:51:50;;;;;;;88.55;58.13;;;103.00;2227.20;;;;;;6187903;23;19993;-84
2021/12/16 11:54:30;;;;;;;89.75;55.75;;;103.10;2227.20;;;;;;6161888;23;20035;-83
2021/12/16 11:57:17;;;;;;;81.00;52.85;;;103.10;2227.20;;;;;;6161566;23;20036;-80
2021/12/16 11:59:58;;;;;;;93.88;57.63;;;103.20;2227.20;;;;;;6161810;23;20005;-84
2021/12/16 12:02:38;;;;;;;90.80;58.97;;;103.00;2227.20;;;;;;6161832;23;20084;-83
2021/12/16 12:05:36;;;;;;;87.47;48.75;;;102.90;2227.20;;;;;;6161841;23;20450;-82
2021/12/16 12:08:16;;;;;;;82.30;51.30;;;103.00;2227.20;;;;;;6161015;23;20076;-81
2021/12/16 12:10:45;;;;;;;164.73;62.28;;;103.10;2227.20;;;;;;6161652;23;20039;-83
2021/12/16 12:13:27;;;;;;;75.55;45.17;;;103.00;2227.20;;;;;;6161611;23;19997;-88
2021/12/16 12:16:05;;;;;;;78.28;46.90;;;103.10;2227.20;;;;;;6167045;23;20000;-87
2021/12/16 12:18:44;;;;;;;87.43;56.28;;;103.10;2227.20;;;;;;6189633;23;20030;-87
2021/12/16 12:21:30;;;;;;;90.07;60.58;;;103.10;2227.20;;;;;;6165627;23;20002;-89
2021/12/16 12:24:22;;;;;;;78.28;49.70;;;103.10;2227.20;;;;;;6161966;23;20000;-86
2021/12/16 12:26:55;;;;;;;91.22;53.75;;;103.10;2227.20;;;;;;6162122;23;20008;-88
2021/12/16 12:29:30;;;;;;;87.30;54.75;;;103.10;2227.20;;;;;;6162047;23;20487;-85
2021/12/16 12:32:10;;;;;;;89.43;54.78;;;103.20;2227.20;;;;;;6161852;23;20060;-86
2021/12/16 12:34:40;;;;;;;90.82;58.55;;;103.20;2227.20;;;;;;6187846;23;19997;-83
2021/12/16 12:37:10;;;;;;;103.00;57.08;;;103.20;2227.20;;;;;;6187537;23;20481;-83
2021/12/16 12:39:45;;;;;;;112.07;70.47;;;103.20;2227.20;;;;;;6161704;23;20326;-85
2021/12/16 12:42:13;;;;;;;133.40;87.30;;;103.30;2227.20;;;;;;6161585;23;20029;-89
2021/12/16 12:44:39;;;;;;;120.80;76.28;;;103.20;2227.20;;;;;;6161490;23;20024;-89
2021/12/16 12:47:10;;;;;;;156.52;91.15;;;103.20;2227.20;;;;;;6161706;23;20001;-90
2021/12/16 12:49:36;;;;;;;125.28;75.38;;;103.30;2227.20;;;;;;6161779;23;20004;-89
2021/12/16 12:52:31;;;;;;;93.45;57.25;;;103.20;2227.20;;;;;;6161608;23;20344;-83
2021/12/16 12:55:01;;;;;;;108.20;69.05;;;103.00;2227.20;;;;;;6129879;23;20180;-82
2021/12/16 12:57:30;;;;;;;163.23;103.10;;;103.10;2227.20;;;;;;6160651;23;20001;-81
2021/12/16 12:59:57;;;;;;;133.90;85.57;;;103.20;2227.20;;;;;;6160663;23;20486;-79
2021/12/16 13:02:32;;;;;;;106.15;67.40;;;103.10;1920.00;;;;;;6187415;23;20035;-89
2021/12/16 13:05:21;;;;;;;126.72;77.90;;;103.20;2227.20;;;;;;6161994;23;19993;-87
2021/12/16 13:07:58;;;;;;;116.63;71.57;;;103.20;2073.60;;;;;;6161738;23;20276;-89
2021/12/16 13:10:47;;;;;;;110.93;70.80;;;103.20;2227.20;;;;;;6161365;23;20001;-86
2021/12/16 13:15:57;;;;;;;115.88;69.72;;;103.30;2227.20;;;;;;6197389;23;20001;-88
2021/12/16 13:24:26;;;;;;;137.95;80.05;;;103.20;2227.20;;;;;;6187144;23;19904;-89
2021/12/16 13:27:09;;;;;;;173.82;104.78;;;103.20;2227.20;;;;;;6161509;23;20008;-89
2021/12/16 13:29:42;;;;;;;141.68;87.35;;;103.20;2227.20;;;;;;6186748;23;20001;-89
2021/12/16 13:32:28;;;;;;;120.57;74.75;;;103.30;2227.20;;;;;;6186763;23;19997;-89
2021/12/16 13:35:23;;;;;;;98.95;61.97;;;128.00;2252.80;;;;;;6160930;23;20083;-89
2021/12/16 13:37:55;;;;;;;86.63;53.35;;;103.20;2227.20;;;;;;6161415;23;20009;-90
2021/12/16 13:40:32;;;;;;;107.10;65.53;;;103.30;2227.20;;;;;;6161268;23;20088;-90
2021/12/16 13:43:02;;;;;;;114.55;74.82;;;128.00;2252.80;;;;;;6187417;23;20691;-88
2021/12/16 13:45:38;;;;;;;108.60;71.03;;;103.30;2227.20;;;;;;6161154;23;20051;-88
2021/12/16 14:05:31;;;;;;;82.72;52.13;;;103.20;2227.20;;;;;;6187289;23;20039;-87
2021/12/16 14:07:59;;;;;;;78.05;50.97;;;103.20;2227.20;;;;;;6157440;23;20005;-86
2021/12/16 14:10:59;;;;;;;73.30;49.30;;;103.20;2227.20;;;;;;6159970;23;20054;-88
2021/12/16 14:25:41;;;;;;;85.93;53.17;;;103.10;2227.20;;;;;;6186141;23;20489;-87
2021/12/16 14:50:16;;;;;;;150.48;92.90;;;103.30;2227.20;;;;;;6196321;23;20000;-88
2021/12/16 14:52:42;;;;;;;203.90;122.47;;;128.00;2252.80;;;;;;6159810;23;19994;-88
2021/12/16 14:55:11;;;;;;;168.75;107.22;;;128.00;2252.80;;;;;;6159523;23;20021;-87
2021/12/16 14:57:41;;;;;;;96.80;63.42;;;128.00;2252.80;;;;;;6160252;23;19997;-88
2021/12/16 15:00:15;;;;;;;108.88;70.28;;;103.20;2227.20;;;;;;6159797;23;20001;-89
2021/12/16 15:02:44;;;;;;;118.05;76.10;;;103.20;2227.20;;;;;;6185971;23;19993;-87
2021/12/16 15:05:28;;;;;;;165.90;102.78;;;103.20;2227.20;;;;;;6160224;23;19997;-88
2021/12/16 15:08:02;;;;;;;136.43;87.53;;;103.20;2227.20;;;;;;6159531;23;20001;-86
2021/12/16 15:10:28;;;;;;;154.25;102.22;;;103.30;2227.20;;;;;;6159876;23;20009;-86
2021/12/16 15:13:05;;;;;;;168.52;110.50;;;103.20;2227.20;;;;;;6160086;23;20009;-88
2021/12/16 15:15:46;;;;;;;189.95;120.88;;;128.00;2252.80;;;;;;6160375;23;19994;-88
2021/12/16 15:38:17;;;;;;;343.65;232.20;;;103.30;2227.20;;;;;;6186522;23;20011;-88
2021/12/16 15:43:30;;;;;;;281.70;188.43;;;103.20;2227.20;;;;;;6196964;23;20024;-91
2021/12/16 15:45:57;;;;;;;276.17;188.27;;;103.20;2227.20;;;;;;6160953;23;19997;-88
2021/12/16 15:48:29;;;;;;;282.20;194.13;;;103.20;2227.20;;;;;;6160462;23;20079;-88
2021/12/16 15:50:54;;;;;;;303.88;201.02;;;103.10;2227.20;;;;;;6159827;23;20008;-89
2021/12/16 15:53:24;;;;;;;304.42;205.00;;;103.10;2227.20;;;;;;6160792;23;20005;-90
2021/12/16 15:56:06;;;;;;;296.33;194.88;;;103.10;2176.00;;;;;;6160433;23;20009;-87
2021/12/16 15:58:39;;;;;;;285.83;191.00;;;103.10;2227.20;;;;;;6161127;23;20019;-89
2021/12/16 16:01:21;;;;;;;303.98;197.10;;;103.10;2227.20;;;;;;6162545;23;20088;-88
2021/12/16 16:03:48;;;;;;;306.48;200.55;;;103.10;2227.20;;;;;;6162832;23;20087;-88
2021/12/16 16:06:17;;;;;;;347.95;225.10;;;103.10;2227.20;;;;;;6162439;23;20288;-88
2021/12/16 16:08:52;;;;;;;350.17;228.65;;;103.10;2099.20;;;;;;6162695;23;20005;-90
2021/12/16 16:11:28;;;;;;;312.33;208.77;;;103.10;2227.20;;;;;;6162314;23;20008;-88
2021/12/16 16:13:58;;;;;;;393.75;264.30;;;103.20;2227.20;;;;;;6162218;23;20019;-88
2021/12/16 16:16:30;;;;;;;208.48;133.10;;;103.20;2073.60;;;;;;6162165;23;20000;-87